Date,TemperatureHighF,TemperatureAvgF,TemperatureLowF,DewpointHighF,DewpointAvgF,DewpointLowF,HumidityHigh,HumidityAvg,HumidityLow,PressureMaxIn,PressureMinIn,WindSpeedMaxMPH,WindSpeedAvgMPH,GustSpeedMaxMPH,PrecipitationSumIn
2013-1-9,37.6,32.2,26.8,31.0,27.6,24.2,93,83,68,29.04,28.75,15,6,22,0.00
2013-1-10,36.1,34.7,34.2,34.3,33.5,31.2,99,96,82,28.75,28.44,22,9,22,0.04
2013-1-11,38.1,33.3,20.5,37.9,32.8,16.5,99,98,85,28.86,28.20,18,10,18,0.08
2013-1-12,20.5,14.2,6.6,17.0,8.8,1.8,90,79,66,28.97,28.52,17,9,17,0.00
2013-1-13,31.5,10.4,4.3,7.8,3.9,1.1,91,75,52,29.12,28.72,12,5,12,0.05
2013-1-14,30.2,15.1,1.8,18.3,8.9,-0.7,95,78,48,29.24,29.11,15,5,15,0.00
2013-1-15,16.7,15.3,14.2,12.4,11.6,-0.0,87,85,82,29.11,29.08,9,6,9,0.05
2013-1-16,49.8,29.5,19.2,36.5,23.5,14.0,95,79,57,29.25,28.72,12,4,15,0.00
2013-1-17,37.6,31.7,28.4,33.5,30.3,27.4,98,94,84,29.20,29.01,16,8,16,0.00
2013-1-18,60.1,39.4,4.1,36.2,30.5,2.1,98,74,37,29.01,28.66,17,7,17,0.05
2013-1-19,51.4,33.5,11.5,37.9,26.3,4.6,92,75,57,29.19,28.62,16,7,16,0.06
2013-1-20,15.1,10.9,9.1,9.8,5.4,2.0,86,78,71,29.27,29.16,10,5,10,0.00
2013-1-22,28.8,9.8,8.4,7.3,6.6,5.3,89,87,70,29.21,28.64,13,8,13,0.05
2013-1-23,27.0,13.6,0.9,16.1,7.0,-6.9,91,76,53,29.37,28.96,21,8,21,0.00
2013-1-24,16.5,6.5,-3.1,7.9,-2.3,-11.4,73,67,60,29.42,28.94,23,13,23,0.00
2013-1-25,39.6,21.8,8.4,27.3,14.6,4.1,86,74,59,29.10,28.89,20,6,20,0.00
2013-1-26,40.5,22.5,8.4,27.2,14.7,2.8,82,72,59,29.10,28.35,23,12,23,0.00
2013-1-27,36.3,34.2,32.5,34.6,29.7,25.6,99,84,69,28.79,28.63,16,11,16,0.27
2013-1-28,37.6,33.6,30.0,37.3,33.2,29.8,99,98,89,28.61,28.41,13,2,15,0.02
2013-1-29,38.7,27.1,18.9,35.1,23.2,13.1,90,85,76,28.69,28.49,13,5,23,0.01
2013-1-30,21.4,12.6,5.2,15.0,7.7,-0.2,85,81,75,28.77,28.66,13,8,13,0.00
2013-1-31,34.3,0.7,-5.8,15.1,-6.5,-10.9,80,71,58,29.21,28.76,20,10,20,0.00
2013-2-1,45.1,11.4,-6.3,25.8,5.6,-10.6,88,77,62,29.20,28.69,24,10,24,0.00
2013-2-2,36.0,23.0,18.1,33.5,19.6,16.0,99,86,79,29.00,28.83,12,5,16,0.00
2013-2-3,52.7,30.7,13.8,36.0,23.7,10.4,95,77,47,29.01,28.58,15,5,23,0.00
2013-2-4,29.7,21.9,17.1,27.9,18.2,13.8,93,86,75,28.87,28.61,15,6,20,0.00
2013-2-5,48.9,32.7,21.4,34.8,27.8,20.4,99,83,56,28.89,28.58,8,4,15,0.00
2013-2-6,45.1,36.1,27.1,38.0,32.0,26.4,98,85,69,28.87,28.64,17,6,25,0.00
2013-2-7,34.3,30.5,26.8,33.1,27.4,23.1,98,88,79,29.08,28.76,9,3,16,0.00
2013-2-8,34.0,27.4,23.7,27.2,24.0,21.4,96,87,76,29.12,28.90,17,9,23,0.00
2013-2-9,50.0,37.6,25.9,36.9,31.9,24.9,97,81,57,28.92,28.51,21,15,49,0.00
2013-2-10,42.8,35.0,27.5,42.1,33.7,25.9,99,95,81,28.53,28.05,16,9,27,0.13
2013-2-11,28.6,26.0,21.0,25.7,22.5,17.1,96,86,81,28.93,28.54,9,5,20,0.00
2013-2-12,45.0,29.3,16.5,29.1,22.7,14.9,94,79,50,28.93,28.71,10,5,11,0.01
2013-2-13,52.0,34.8,21.9,37.1,29.5,21.1,99,83,55,28.72,28.49,15,4,15,0.14
2013-2-14,34.0,33.6,32.9,32.4,31.9,31.3,95,93,91,28.68,28.58,12,6,12,0.00
2013-2-15,27.9,16.5,8.1,23.6,13.6,5.8,91,88,80,29.18,29.13,13,3,15,0.00
2013-2-16,34.9,21.0,7.3,29.1,18.0,5.3,94,88,75,29.13,28.79,15,8,15,0.14
2013-2-17,50.2,34.3,21.7,37.7,28.7,19.8,93,81,59,28.82,28.38,30,13,30,0.00
2013-2-18,37.3,26.2,9.0,33.5,20.7,2.9,98,80,60,28.92,28.42,22,11,22,0.00
2013-2-19,20.3,9.9,0.3,5.1,1.0,-3.7,83,68,45,29.21,28.91,21,10,21,0.00
2013-2-20,25.5,11.9,-1.8,8.3,1.0,-5.7,86,63,41,29.24,29.04,18,8,18,0.00
2013-2-21,25.2,20.4,17.6,20.5,14.1,8.3,98,78,54,29.10,28.76,23,14,23,0.00
2013-2-22,29.1,18.0,4.1,21.2,15.4,2.1,97,90,68,28.82,28.74,18,6,18,0.01
2013-2-23,33.1,12.2,-2.9,19.0,8.1,-5.6,94,84,66,28.80,28.63,21,4,21,0.15
2013-2-24,28.4,19.0,7.7,23.6,16.5,5.9,98,90,71,28.92,28.69,6,3,6,0.00
2013-2-25,39.2,26.7,18.0,31.5,23.5,17.7,99,88,64,28.94,28.79,15,4,15,0.05
2013-2-26,37.4,26.6,19.6,30.2,24.1,19.3,99,91,74,28.84,28.69,20,8,20,0.00
2013-2-27,34.9,25.5,16.5,26.6,21.8,14.3,95,86,70,28.95,28.77,15,9,15,0.00
2013-2-28,29.5,25.6,23.5,24.8,22.5,20.4,93,88,79,29.07,28.94,11,7,11,0.00
2013-3-1,37.4,23.9,7.5,22.4,18.0,6.1,94,79,51,29.20,29.05,20,6,20,0.00
2013-3-2,29.7,17.4,1.0,23.6,13.4,-1.2,94,85,74,29.18,28.87,15,6,15,0.01
2013-3-3,37.6,30.2,23.5,30.3,25.6,20.2,93,83,73,28.87,28.54,23,13,23,0.00
2013-3-4,39.2,32.6,27.5,31.8,27.0,22.0,92,80,71,28.83,28.51,15,6,15,0.00
2013-3-5,28.4,25.4,21.2,25.6,21.3,16.6,98,84,76,29.22,28.82,21,11,21,0.00
2013-3-6,33.4,25.0,18.9,24.2,19.6,15.2,88,80,66,29.25,29.06,16,7,16,0.00
2013-3-7,45.7,31.8,20.8,34.0,26.1,3.7,91,80,60,29.08,28.92,28,14,101,0.01
2013-3-8,53.6,39.2,14.7,41.0,33.1,13.8,96,79,57,29.01,28.73,20,9,20,0.02
2013-3-9,43.0,38.6,31.6,42.7,38.3,31.4,99,99,96,28.72,28.44,24,9,24,0.46
2013-3-10,31.6,27.2,22.1,31.4,25.7,18.8,99,94,84,28.82,28.65,13,3,13,0.46
2013-3-11,41.0,25.9,15.1,26.5,20.1,12.4,90,80,52,28.82,28.68,12,6,12,0.07
2013-3-12,32.0,27.1,19.9,27.4,22.9,17.0,99,84,72,29.13,28.80,18,9,18,0.00
2013-3-13,40.5,25.0,12.7,26.4,20.0,11.8,96,82,47,29.23,28.99,20,8,20,0.01
2013-3-14,63.9,43.2,28.2,49.7,35.7,21.7,99,76,55,29.03,28.84,17,6,17,0.00
2013-3-15,52.2,42.6,33.1,44.1,39.3,20.9,99,88,73,29.06,28.58,16,8,16,0.00
2013-3-16,39.6,29.3,23.4,32.8,23.9,20.0,99,81,55,29.02,28.74,16,10,16,0.00
2013-3-17,38.7,28.4,19.9,33.0,22.7,14.7,97,79,69,29.02,28.51,29,15,29,0.01
2013-3-18,34.9,27.8,18.1,34.6,21.7,10.9,99,79,49,28.86,28.50,28,11,28,0.01
2013-3-19,45.0,25.1,12.4,23.2,14.3,7.8,89,66,39,29.19,28.82,17,5,17,0.00
2013-3-20,37.6,21.9,9.5,16.9,9.3,5.8,86,61,31,29.24,28.95,15,7,15,0.00
2013-3-21,35.4,23.4,12.6,21.2,12.8,6.9,80,66,37,28.95,28.76,16,9,16,0.00
2013-3-22,34.5,28.3,22.1,24.9,20.4,16.9,81,72,55,28.89,28.80,12,6,12,0.00
2013-3-23,35.4,30.7,27.9,31.1,26.2,24.5,98,84,68,28.97,28.86,17,6,17,0.00
2013-3-24,30.2,26.8,22.6,26.2,22.0,17.6,99,82,65,28.96,28.86,9,5,16,0.00
2013-3-25,33.4,26.5,22.6,25.4,21.9,19.3,97,83,64,29.16,28.95,7,4,17,0.00
2013-3-26,42.0,29.6,13.2,24.7,19.2,10.5,91,67,43,29.18,29.03,7,3,13,0.04
2013-3-27,53.1,38.1,24.1,31.1,26.0,20.7,88,64,37,29.08,28.99,16,8,22,0.00
2013-3-28,56.8,42.5,27.0,37.0,32.0,24.9,94,68,43,29.06,28.98,14,6,27,0.00
2013-3-29,67.9,49.2,26.6,44.8,35.0,25.5,99,63,31,29.02,28.82,16,7,26,0.00
2013-3-30,67.0,52.1,38.0,49.8,44.5,35.7,99,78,40,28.85,28.74,21,5,32,0.09
2013-3-31,53.4,38.2,23.9,39.1,31.0,21.4,99,80,35,29.01,28.78,14,3,21,0.12
2013-4-1,46.4,28.3,12.0,22.6,16.7,10.4,94,66,27,29.17,29.01,9,2,16,0.13
2013-4-2,54.1,34.9,15.6,27.5,21.5,13.5,92,62,31,29.12,29.05,8,3,15,0.00
2013-4-3,61.2,43.9,28.6,30.6,27.4,24.2,85,57,27,29.12,28.94,22,12,32,0.00
2013-4-4,63.5,47.6,32.4,37.9,28.1,13.4,88,52,15,28.99,28.90,17,7,28,0.11
2013-4-5,64.8,46.5,29.9,40.3,31.6,24.6,83,59,36,29.01,28.47,23,11,37,0.00
2013-4-6,72.7,56.6,40.6,46.3,39.3,35.7,95,55,28,28.63,28.38,16,7,24,0.04
2013-4-7,66.4,45.7,30.4,51.5,38.8,29.9,99,80,42,28.73,28.47,14,6,21,0.04
2013-4-8,75.3,51.5,32.7,53.0,44.8,32.5,99,82,40,28.67,28.45,30,8,44,0.35
2013-4-9,44.4,35.2,28.6,43.1,34.6,27.6,99,98,91,28.93,28.56,33,14,48,1.21
2013-4-10,33.8,33.2,32.7,32.9,32.1,31.2,97,96,93,28.84,28.73,9,1,15,0.08
2013-4-11,41.0,33.3,29.5,37.4,32.5,29.2,99,97,85,28.55,28.45,16,3,10,0.28
2013-4-12,35.6,32.4,30.7,31.9,30.8,29.2,99,94,79,28.72,28.55,12,2,12,0.01
2013-4-13,47.0,45.2,43.9,40.1,37.2,35.7,83,73,66,28.72,28.53,12,8,22,0.00
2013-4-14,56.6,46.8,38.8,51.0,41.4,30.9,97,82,56,28.53,28.12,17,8,28,0.06
2013-4-15,48.1,37.8,30.2,35.1,29.4,23.9,88,72,56,28.93,28.46,7,4,15,0.00
2013-4-16,50.9,39.5,30.0,32.7,30.2,27.8,94,72,45,29.07,28.91,18,6,24,0.00
2013-4-17,38.7,35.9,32.9,38.4,34.3,31.3,99,94,80,29.06,28.73,18,12,29,0.25
2013-4-18,34.9,32.6,29.2,33.8,31.8,26.1,99,97,88,28.75,28.59,10,5,21,0.11
2013-4-19,44.5,33.2,23.0,32.8,25.7,19.8,88,75,51,28.92,28.65,8,5,16,0.00
2013-4-20,42.9,33.2,19.9,31.1,25.5,18.2,95,74,56,29.07,28.93,12,4,17,0.00
2013-4-21,61.1,47.8,37.8,48.7,38.5,28.0,88,71,50,28.99,28.83,16,6,23,0.00
2013-4-22,41.9,34.4,27.3,37.8,33.3,26.6,99,96,85,29.11,28.90,17,7,26,0.21
2013-4-23,39.6,30.7,22.8,29.0,25.0,20.1,98,80,58,29.11,28.98,7,2,13,0.06
2013-4-24,56.2,37.2,21.4,44.2,30.0,20.7,99,78,49,28.98,28.82,14,5,21,0.00
2013-4-25,71.2,47.5,24.4,40.5,32.8,23.7,99,64,24,29.05,28.72,20,8,35,0.00
2013-4-26,81.0,61.6,42.6,42.1,36.1,27.2,82,45,15,28.99,28.77,15,7,22,0.00
2013-4-27,78.9,58.5,34.0,51.0,42.1,31.4,99,60,22,28.99,28.71,14,5,22,0.00
2013-4-28,87.8,74.7,56.5,53.1,42.2,32.0,73,35,14,28.73,28.46,32,17,32,0.00
2013-4-29,82.4,64.6,46.8,50.4,44.6,24.3,82,52,26,28.66,28.27,21,10,21,0.00
2013-4-30,74.3,64.4,51.4,56.6,40.0,13.5,74,46,10,28.85,28.23,24,10,24,0.06
2013-5-1,50.9,39.7,32.4,44.2,36.2,31.3,99,87,73,29.29,28.83,29,8,29,1.24
2013-5-2,57.7,43.6,35.2,36.3,29.5,22.7,81,60,28,29.42,29.24,31,14,31,0.00
2013-5-3,57.0,41.5,26.6,33.0,28.5,24.2,95,63,33,29.25,28.92,29,13,29,0.00
2013-5-4,43.0,40.0,36.7,41.3,37.4,31.3,99,91,69,29.01,28.89,26,12,27,0.05
2013-5-5,58.6,46.3,39.9,49.3,44.0,39.7,99,92,69,29.02,28.95,10,4,10,0.09
2013-5-6,73.2,53.0,45.0,52.3,47.0,44.0,99,82,45,28.99,28.87,10,3,10,0.00
2013-5-7,73.6,57.1,38.5,56.0,49.1,38.2,99,78,39,28.89,28.77,21,6,21,0.00
2013-5-8,67.1,59.2,36.5,61.9,57.8,23.5,99,95,68,29.02,28.73,15,8,15,0.53
2013-5-9,62.1,57.5,50.9,57.6,55.7,49.7,99,94,81,28.88,28.74,28,12,28,0.14
2013-5-10,74.7,57.6,44.4,54.2,47.6,40.5,98,72,37,28.95,28.80,20,6,20,0.00
2013-5-11,62.8,52.7,36.5,49.6,30.8,16.9,84,47,19,29.11,28.84,30,7,30,0.00
2013-5-12,74.1,51.5,27.1,35.8,22.2,8.5,90,41,10,29.10,28.91,16,4,16,0.00
2013-5-13,90.5,66.5,44.4,53.7,42.6,28.8,65,45,21,28.91,28.58,34,12,35,0.00
2013-5-14,103.1,79.3,59.5,59.3,46.1,27.7,81,41,10,28.62,28.42,26,8,26,0.00
2013-5-15,67.1,64.2,61.0,46.0,42.9,33.9,57,46,36,28.77,28.62,24,10,24,0.00
2013-5-16,87.4,67.4,57.4,66.5,57.7,39.7,99,79,19,28.69,28.58,16,6,22,0.31
2013-5-17,90.0,75.4,63.5,67.9,62.3,57.8,92,67,34,28.72,28.58,14,7,19,0.00
2013-5-18,86.7,79.6,66.7,66.2,63.6,39.4,86,59,44,28.95,28.51,25,13,25,0.00
2013-5-19,77.0,66.4,62.4,67.3,63.6,61.4,99,91,67,28.55,28.38,29,9,29,0.19
2013-5-25,57.0,57.0,57.0,56.7,56.7,56.7,99,99,99,28.80,28.80,6,6,8,0.00
2013-5-26,69.6,61.6,56.7,65.8,59.9,55.1,99,94,86,28.85,28.66,37,16,37,0.25
2013-5-27,85.8,65.8,59.0,64.7,60.7,43.7,97,84,63,28.74,28.53,29,12,37,1.23
2013-5-28,82.4,68.1,56.1,64.7,60.7,55.8,99,80,50,28.57,28.46,15,6,15,0.00
2013-5-29,80.8,70.6,62.2,69.7,65.4,59.9,99,85,59,28.54,28.26,34,15,35,0.28
2013-5-30,78.3,68.5,62.2,66.5,60.7,50.6,99,78,49,28.38,28.27,32,17,32,0.04
2013-5-31,75.9,66.0,57.7,55.4,50.8,46.7,87,60,37,28.45,28.36,37,12,37,0.00
2013-6-1,79.5,55.0,51.1,56.9,53.3,49.4,99,94,75,28.87,28.42,15,7,15,0.26
2013-6-2,74.7,60.0,48.0,51.7,47.0,41.6,95,66,33,28.95,28.82,17,5,17,0.00
2013-6-3,77.5,63.8,47.1,52.8,48.9,45.3,95,62,35,28.84,28.62,51,13,51,0.00
2013-6-4,72.9,63.7,53.1,63.3,57.1,52.4,99,80,64,28.85,28.68,21,9,26,0.00
2013-6-5,73.4,62.2,51.1,57.8,52.7,49.0,99,73,48,28.88,28.56,9,4,9,0.00
2013-6-6,75.4,63.7,54.0,58.6,54.1,50.6,98,72,46,28.85,28.78,20,5,20,0.00
2013-6-7,79.2,64.7,47.1,62.1,50.7,46.9,99,65,34,28.88,28.49,12,4,12,0.00
2013-6-8,62.8,59.8,55.4,61.2,56.2,50.2,99,89,65,28.69,28.45,18,11,18,0.90
2013-6-9,72.5,62.4,58.6,62.8,60.2,57.5,99,93,70,28.68,28.43,11,5,11,0.08
2013-6-10,81.0,66.7,54.1,66.7,60.6,53.9,99,82,57,28.72,28.61,15,6,15,0.01
2013-6-11,90.7,77.9,65.3,72.5,67.6,62.8,95,73,48,28.66,28.53,23,10,23,0.02
2013-6-12,84.9,72.6,58.3,74.9,65.3,54.5,96,79,57,28.87,28.41,21,7,21,0.12
2013-6-13,82.9,69.1,53.4,63.2,55.6,51.7,99,67,36,28.94,28.81,13,5,13,0.00
2013-6-14,81.3,72.9,62.4,71.6,63.1,54.8,90,72,58,28.86,28.58,32,14,33,0.08
2013-6-15,88.3,73.1,62.4,70.5,65.6,62.1,99,79,50,28.84,28.63,17,5,17,0.38
2013-6-16,87.6,72.5,59.7,67.7,59.6,44.9,99,69,25,29.05,28.70,21,3,21,0.00
2013-6-17,90.0,73.8,55.9,66.0,57.8,48.4,99,63,29,28.99,28.78,26,3,26,0.00
2013-6-18,89.6,75.0,58.8,62.1,57.3,51.9,96,59,28,28.89,28.78,13,4,13,0.00
2013-6-19,89.4,77.2,60.4,68.1,63.0,57.0,92,63,46,28.82,28.68,26,11,26,0.00
2013-6-20,91.8,80.9,69.8,73.4,69.5,64.6,86,69,52,28.74,28.60,28,15,28,0.00
2013-6-21,94.8,85.5,77.9,74.8,72.8,68.5,85,67,45,28.65,28.54,33,14,34,0.00
2013-6-22,84.7,73.2,65.5,72.8,67.7,63.0,99,84,66,28.82,28.50,30,8,30,0.32
2013-6-23,93.6,76.0,63.7,70.1,66.6,58.7,99,75,40,28.73,28.45,32,6,32,0.05
2013-6-24,84.6,74.6,68.4,74.8,70.2,61.4,99,87,65,28.73,28.56,21,6,21,0.04
2013-6-25,88.2,78.8,70.3,74.7,70.3,60.3,99,77,57,28.57,28.48,21,6,21,0.01
2013-6-26,100.0,80.3,69.3,73.0,67.6,57.8,99,73,26,28.70,28.50,8,3,8,0.00
2013-6-27,92.5,77.7,68.4,73.3,66.9,61.8,97,73,38,28.84,28.70,8,3,8,0.09
2013-6-28,89.2,77.0,61.3,66.8,61.0,52.6,99,63,31,28.83,28.63,13,5,13,0.00
2013-6-29,85.1,72.3,58.6,61.9,57.5,53.8,94,63,36,28.81,28.73,26,7,26,0.00
2013-6-30,81.0,68.5,54.7,58.8,53.7,47.3,96,64,32,28.97,28.80,18,5,18,0.00
2013-7-1,89.1,72.0,53.2,61.1,54.1,44.2,95,60,23,29.04,28.95,18,6,18,0.00
2013-7-2,89.8,71.5,54.3,64.0,58.0,52.0,97,67,31,28.98,28.49,20,4,20,0.09
2013-7-3,88.9,71.8,53.6,64.0,58.7,53.0,99,68,35,28.90,28.52,13,4,13,0.09
2013-7-4,88.9,74.9,59.5,64.0,59.6,56.0,91,62,36,28.77,28.61,30,11,30,0.00
2013-7-5,89.4,78.6,68.2,69.5,63.5,54.2,75,60,47,28.91,28.61,26,14,26,0.00
2013-7-6,91.9,81.1,72.7,71.8,66.8,61.2,78,63,47,28.65,28.58,23,13,23,0.00
2013-7-7,93.9,80.9,68.7,75.2,70.0,64.4,96,71,51,28.79,28.64,16,6,16,0.27
2013-7-8,94.8,86.3,75.2,77.4,74.6,71.6,95,69,52,28.80,28.72,15,6,15,0.01
2013-7-9,96.1,80.0,68.9,77.2,71.9,52.7,100,79,30,28.85,28.67,23,5,23,0.04
2013-7-10,90.0,74.9,64.8,68.2,63.4,57.8,99,71,38,28.94,28.82,15,6,15,0.00
2013-7-11,64.8,62.5,61.3,62.1,60.8,59.8,97,94,91,28.89,28.87,4,1,4,0.00
2013-7-19,98.1,75.9,58.5,66.5,61.9,55.8,99,69,26,28.83,28.72,17,1,24,0.00
2013-7-20,91.2,75.0,65.3,72.7,67.0,64.1,99,79,41,28.77,28.65,9,2,13,0.01
2013-7-21,96.8,79.7,66.2,75.2,69.8,65.9,99,75,41,28.68,28.56,6,2,9,0.01
2013-7-22,96.6,75.6,61.9,76.7,64.7,60.5,97,72,40,28.82,28.59,10,3,15,0.00
2013-7-23,84.6,69.2,54.3,63.6,58.9,53.2,99,73,44,28.92,28.79,10,3,16,0.00
2013-7-24,83.8,82.4,81.5,59.6,59.2,58.8,47,45,44,28.90,28.90,3,2,8,0.00
2013-7-25,68.5,67.2,65.5,68.0,66.7,65.2,99,98,98,28.83,28.82,26,4,26,0.15
2013-7-26,80.2,67.6,57.9,65.4,57.8,51.0,99,74,39,28.98,28.81,20,4,20,0.01
2013-7-27,79.5,62.6,45.0,55.9,48.9,43.6,98,66,30,28.98,28.85,17,4,17,0.00
2013-7-28,84.9,63.7,41.9,55.3,48.6,41.1,99,64,26,28.90,28.84,12,3,12,0.00
2013-7-29,67.5,60.4,50.4,63.1,55.9,47.5,97,86,65,28.90,28.84,18,5,18,0.00
2013-7-30,79.3,69.7,62.2,68.0,64.9,61.4,99,86,65,28.93,28.86,8,2,8,0.00
2013-7-31,92.5,71.9,56.7,72.7,61.9,56.4,99,76,37,28.96,28.87,14,3,14,0.00
2013-8-1,88.0,68.9,54.1,72.2,63.4,53.9,99,85,46,28.94,28.71,18,5,18,0.35
2013-8-2,73.8,65.1,62.1,66.6,62.6,60.7,99,92,70,28.89,28.72,18,6,18,0.69
2013-8-3,80.6,68.2,57.2,64.5,59.5,55.2,99,77,44,29.02,28.88,12,4,12,0.00
2013-8-4,80.8,66.6,53.4,67.3,61.8,46.2,99,86,61,29.03,28.72,44,5,44,0.08
2013-8-5,92.7,75.0,14.0,75.2,69.3,-2.1,99,85,48,28.83,28.64,18,5,18,0.51
2013-8-6,95.0,75.6,60.8,73.7,67.5,60.5,99,80,46,28.74,28.58,18,3,18,0.01
2013-8-7,85.6,70.9,58.3,68.8,63.6,58.0,99,81,49,28.84,28.68,15,3,15,0.00
2013-8-8,81.1,69.0,62.6,71.3,65.0,60.3,98,87,65,28.87,28.79,15,5,15,0.08
2013-8-9,70.2,62.2,60.1,68.1,61.8,59.6,99,99,88,28.93,28.84,6,2,6,0.00
2013-8-10,81.5,69.7,59.9,70.8,65.4,59.6,100,88,58,29.02,28.84,39,5,39,0.38
2013-8-11,89.8,74.0,64.6,75.0,68.6,64.1,99,85,57,28.90,28.82,13,5,13,0.00
2013-8-12,86.4,71.2,59.7,70.8,64.5,59.4,99,82,50,28.93,28.85,12,4,12,0.01
2013-8-13,83.8,68.6,54.5,65.1,59.4,54.2,99,76,44,29.01,28.92,13,4,13,0.00
2013-8-14,70.9,61.8,54.1,69.1,60.8,52.3,99,96,90,29.01,28.67,7,2,7,0.00
2013-8-15,67.6,62.7,59.0,63.3,60.8,58.7,99,94,82,28.95,28.88,11,6,11,0.01
2013-8-16,73.0,65.7,60.8,64.1,61.3,59.2,98,86,70,29.00,28.94,15,5,15,0.00
2013-8-17,79.9,68.2,58.3,65.1,61.5,58.0,99,81,57,28.99,28.91,18,8,18,0.00
2013-8-18,81.1,68.5,56.3,66.5,61.4,56.0,99,80,56,28.94,28.84,23,8,23,0.00
2013-8-19,87.3,75.1,63.1,74.4,68.8,62.3,99,82,63,28.86,28.70,22,10,27,0.00
2013-8-20,90.1,78.7,66.9,79.3,73.3,62.0,99,84,66,28.87,28.67,15,7,15,0.01
2013-8-21,91.0,78.5,63.3,79.1,73.1,62.7,99,84,65,28.85,28.68,17,6,17,0.01
2013-8-22,88.2,79.0,67.6,76.1,72.2,67.3,99,81,60,28.90,28.83,13,5,13,0.00
2013-8-23,88.0,77.2,66.4,76.4,71.8,66.1,99,85,66,28.90,28.76,18,7,18,0.00
2013-8-24,89.8,78.9,71.8,80.0,74.3,63.0,99,87,67,28.97,28.75,25,13,25,0.05
2013-8-25,91.9,82.2,74.5,80.0,74.8,70.9,94,79,63,28.85,28.79,23,14,23,0.00
2013-8-26,91.8,82.4,71.6,79.4,74.9,70.7,97,79,63,28.83,28.69,26,11,26,0.00
2013-8-27,95.0,83.6,74.1,81.5,74.0,67.7,93,74,57,28.72,28.67,15,7,15,0.00
2013-8-28,96.1,81.1,68.7,80.9,73.5,67.2,97,80,55,28.80,28.72,11,4,11,0.00
2013-8-29,93.6,80.0,67.8,81.3,74.2,67.5,99,84,60,28.82,28.69,16,6,16,0.00
2013-8-30,96.1,81.3,70.3,79.2,74.1,69.5,99,81,48,28.75,28.68,13,5,13,0.00
2013-8-31,95.7,77.9,65.8,78.8,72.4,65.6,99,85,53,28.73,28.60,13,4,13,0.00
2013-9-1,87.1,73.1,59.5,75.2,64.5,58.2,99,77,47,28.86,28.63,21,4,21,0.01
2013-9-2,89.2,66.2,50.5,61.3,56.8,50.3,99,77,35,28.98,28.85,9,3,9,0.00
2013-9-3,84.7,68.2,51.6,72.1,62.4,51.3,99,83,58,28.91,28.80,17,5,17,0.00
2013-9-4,87.6,73.6,64.6,72.8,67.6,63.3,99,83,55,28.94,28.84,13,5,13,0.01
2013-9-5,85.8,74.1,67.8,73.7,69.0,65.7,98,85,61,28.98,28.86,20,8,20,0.00
2013-9-6,91.0,76.9,65.1,76.5,70.4,64.1,99,82,59,28.90,28.67,21,9,21,0.00
2013-9-7,92.5,77.2,68.4,78.8,72.9,67.8,99,88,61,28.79,28.66,43,4,43,0.01
2013-9-8,90.1,78.3,68.4,76.6,73.1,67.9,99,85,63,28.77,28.60,15,6,15,0.00
2013-9-9,100.9,81.4,70.9,75.7,70.4,66.1,99,74,39,28.82,28.53,21,6,21,0.04
2013-9-10,87.6,73.7,62.1,72.9,66.6,61.5,99,81,46,28.87,28.67,13,3,13,0.00
2013-9-11,62.4,60.6,59.9,62.1,60.3,59.6,99,99,98,28.89,28.86,4,1,4,0.00
2013-9-12,71.1,64.4,53.6,68.3,60.3,49.3,96,87,77,29.04,28.92,14,3,14,0.01
2013-9-13,80.8,62.4,45.3,60.4,51.2,45.1,99,72,36,29.07,28.88,13,3,13,0.00
2013-9-14,73.2,61.9,48.6,59.2,54.4,47.9,99,78,55,28.88,28.65,24,8,24,0.12
2013-9-15,72.7,63.7,54.9,61.6,57.2,52.3,97,80,56,29.10,28.64,21,8,21,0.00
2013-9-16,73.8,60.4,49.6,59.1,53.7,49.4,99,80,49,29.17,28.99,15,6,15,0.00
2013-9-17,76.8,62.1,57.0,67.3,60.7,54.4,99,95,82,29.00,28.66,20,11,20,0.00
2013-9-18,90.1,77.1,67.3,72.8,70.0,55.8,99,81,39,30.34,28.46,24,14,24,0.00
2013-9-19,81.9,69.3,52.3,70.0,61.2,49.7,98,77,37,28.83,28.45,12,5,12,0.01
2013-9-20,77.5,57.3,41.5,51.0,45.1,39.1,99,70,28,28.88,28.79,9,3,9,0.00
2013-9-21,78.1,57.4,34.5,61.1,45.2,34.2,99,69,36,28.84,28.65,18,6,18,0.01
2013-9-22,84.9,68.5,54.3,57.0,52.9,49.2,96,63,30,28.66,28.55,31,14,31,0.09
2013-9-23,80.4,67.0,55.2,55.3,52.5,49.0,87,62,34,28.62,28.54,29,13,29,0.00
2013-9-24,83.1,64.2,56.1,61.3,57.3,51.6,99,81,44,28.75,28.62,12,3,13,0.01
2013-9-25,79.9,65.0,49.1,60.8,56.6,48.8,99,77,50,28.75,28.54,22,7,22,0.00
2013-9-26,88.2,72.2,63.0,61.4,60.5,59.6,90,70,39,28.59,28.51,26,14,26,0.00
2013-11-1,49.3,43.0,33.3,43.4,40.3,33.0,99,91,72,28.97,28.95,1,0,4,0.00
2013-11-2,64.8,44.9,30.7,40.9,32.8,29.4,99,68,32,28.97,28.79,13,2,13,0.00
2013-11-3,58.3,47.7,34.5,40.2,35.8,30.5,87,65,44,28.84,28.49,39,18,39,0.06
2013-11-4,61.2,44.8,26.6,44.1,35.5,23.2,97,73,38,28.97,28.55,43,5,43,0.19
2013-11-5,37.0,30.3,23.9,36.6,29.9,22.9,99,98,93,29.00,28.81,20,6,20,0.08
2013-11-6,45.1,33.5,24.3,36.3,30.6,23.9,99,90,65,29.05,28.92,8,2,8,0.00
2013-11-7,50.4,32.8,20.8,32.3,27.1,20.6,99,82,44,29.20,29.01,10,4,10,0.00
2013-11-8,57.2,43.5,30.0,42.7,34.9,26.1,86,72,53,29.02,28.48,32,12,32,0.00
2013-11-9,57.2,42.8,26.8,41.6,34.6,24.4,92,74,47,29.18,28.67,45,5,45,0.00
2013-11-10,52.5,35.6,23.4,36.0,29.1,21.9,99,80,41,29.20,28.90,24,6,24,0.00
2013-11-11,39.7,24.4,8.8,37.2,18.3,6.7,97,78,55,29.60,28.91,32,9,32,0.00
2013-11-12,43.9,19.3,4.1,15.9,10.1,2.1,95,71,34,29.65,28.82,17,6,17,0.07
2013-11-13,60.4,38.9,22.1,34.3,26.6,14.9,81,64,35,29.26,28.74,28,14,28,0.00
2013-11-14,63.3,39.9,27.1,46.5,33.8,25.0,95,81,48,28.78,28.67,8,3,8,0.00
2013-11-15,57.9,39.5,25.5,42.7,34.3,24.4,99,84,53,28.68,28.37,25,8,25,0.00
2013-11-16,64.0,48.1,36.9,49.6,38.4,26.4,99,73,31,28.37,28.09,20,10,20,0.00
2013-11-17,56.8,43.5,33.6,44.6,36.4,26.5,98,77,58,28.84,28.20,10,4,10,0.05
2013-11-18,55.4,36.6,22.5,39.1,29.6,22.0,99,78,43,29.04,28.53,18,4,18,0.06
2013-11-19,61.3,46.0,30.6,36.5,31.2,26.9,87,59,37,28.94,28.60,33,19,33,0.00
2013-11-20,55.0,45.6,32.0,38.9,33.5,29.5,92,64,46,28.82,28.57,29,10,29,0.00
2013-11-21,32.9,25.4,17.6,31.3,20.1,12.9,96,81,63,29.42,28.82,22,9,22,0.00
2013-11-22,34.9,18.2,0.9,16.6,9.9,-2.5,90,72,37,29.49,29.35,18,6,18,0.00
2013-11-23,29.1,14.7,6.1,15.7,5.2,0.1,86,68,35,29.70,29.47,20,5,20,0.00
2013-11-24,39.2,18.1,7.3,21.4,10.6,3.4,86,73,48,29.50,28.91,24,11,30,0.00
2013-11-25,48.4,33.9,18.6,32.0,25.1,15.4,91,71,48,29.01,28.84,13,4,23,0.00
2013-11-26,30.7,22.4,5.9,24.9,13.3,1.9,95,70,39,29.25,29.01,7,3,42,0.00
2013-11-27,34.0,18.9,1.9,21.2,10.6,-0.6,92,72,46,29.24,28.77,22,7,33,0.00
2013-11-28,39.3,24.1,9.5,21.1,15.5,5.1,90,71,42,29.28,28.85,6,2,13,0.00
2013-11-29,40.3,24.7,12.2,26.7,17.5,8.6,90,75,54,29.27,28.94,20,8,47,0.00
2013-11-30,34.9,29.5,21.2,34.5,25.9,19.5,100,87,72,28.98,28.90,6,1,8,0.00
2013-12-1,36.5,30.9,20.7,27.8,24.7,18.7,92,78,69,28.98,28.65,8,3,8,0.00
2013-12-2,60.3,37.7,25.2,38.1,30.4,22.1,94,77,43,28.66,28.33,16,5,16,0.00
2013-12-3,32.7,29.7,27.7,30.8,28.8,23.3,99,96,81,28.56,28.37,7,2,7,0.00
2013-12-4,28.8,17.3,10.6,28.5,15.0,0.5,99,91,46,28.84,28.50,45,10,45,0.21
2013-12-5,14.5,5.0,-6.0,6.3,-0.9,-10.5,84,76,63,29.25,28.83,14,7,14,0.00
2013-12-6,8.1,-3.2,-10.1,-2.6,-9.2,-14.3,84,75,60,29.50,29.24,13,3,13,0.00
2013-12-7,11.1,-1.8,-14.6,4.8,-7.1,-18.3,90,78,57,29.55,29.22,13,3,13,0.00
2013-12-8,16.2,9.0,-3.1,11.8,6.4,-5.9,94,89,81,29.22,28.86,14,5,14,0.00
2013-12-9,18.5,4.3,-8.3,10.8,-2.7,-12.8,90,73,49,29.09,28.73,29,9,29,0.00
2013-12-10,25.0,17.6,4.6,19.5,11.7,0.0,93,78,56,29.13,28.73,15,6,16,0.00
2013-12-11,17.4,5.1,-12.6,15.2,-2.0,-16.3,94,73,47,29.44,29.13,16,6,16,0.00
2013-12-12,35.4,18.9,5.9,23.5,13.6,2.6,94,81,53,29.16,28.85,13,7,13,0.00
2013-12-13,26.8,17.2,9.1,20.8,14.7,8.0,97,90,76,29.01,28.79,20,9,20,0.00
2013-12-14,18.7,12.1,4.5,12.9,8.8,1.7,93,87,73,29.06,28.95,14,4,14,0.00
2013-12-15,19.9,15.1,8.6,14.3,11.3,5.4,92,85,75,28.97,28.80,13,6,13,0.00
2013-12-16,38.7,21.2,4.8,29.9,17.5,2.7,97,86,66,28.93,28.76,14,3,14,0.00
2013-12-17,39.4,27.9,15.4,29.8,21.8,14.3,99,79,50,29.08,28.83,13,5,13,0.00
2013-12-18,63.7,34.2,23.5,35.8,25.8,14.8,95,74,34,28.83,28.52,45,6,45,0.00
2013-12-19,28.6,18.2,10.6,26.7,14.8,7.0,99,86,80,28.84,28.61,24,13,24,0.00
2013-12-20,15.8,12.1,9.7,10.7,8.3,6.4,89,84,77,28.84,28.70,13,5,13,0.00
2013-12-21,28.0,16.6,6.9,19.0,12.2,4.4,92,83,59,28.77,28.63,13,4,17,0.00
2013-12-22,17.4,9.4,-1.3,12.6,3.6,-5.0,88,78,59,29.22,28.77,7,4,13,0.00
2013-12-23,8.5,-3.6,-13.4,-5.1,-12.8,-20.2,85,66,37,29.41,29.23,6,2,12,0.00
2013-12-24,22.8,10.9,-12.3,21.5,6.1,-18.0,96,80,67,29.30,28.88,25,10,35,0.00
2013-12-25,38.3,23.5,12.7,32.3,19.5,10.1,99,85,52,29.08,28.93,9,3,17,0.00
2013-12-26,51.1,30.1,17.6,29.7,22.7,15.4,95,76,38,29.03,28.87,5,1,8,0.00
2013-12-27,57.4,33.0,14.5,34.3,24.8,10.0,99,76,37,29.03,28.83,9,3,45,0.00
2013-12-28,64.8,32.1,6.4,34.1,22.4,0.8,90,72,23,29.05,28.51,16,8,23,0.00
2013-12-29,12.4,2.0,-5.1,0.9,-10.4,-16.4,78,57,31,29.26,29.06,9,3,17,0.00
2013-12-30,26.1,10.9,0.9,22.7,4.6,-9.5,91,76,55,29.10,28.82,15,7,21,0.00
2013-12-31,17.1,9.2,4.8,10.8,4.5,0.0,91,81,76,29.08,28.94,16,7,22,0.00
2014-1-1,6.8,2.8,-5.8,0.7,-2.2,-9.9,89,79,68,29.23,29.04,12,5,44,0.00
2014-1-2,16.0,-1.9,-12.5,-0.5,-8.8,-15.9,86,74,45,29.29,29.13,10,2,15,0.00